Etusivu
METAR-TAF:

METAR-TAF

Lentoasemat :

Palma de Mallorcan lentoasema

Palma, Espanja

Leveyspiiri: 39-33N, Pituuspiiri: 002-44E, korkeus merenpinnasta: 4 m

Tämänhetkinen sää

Tämä raportti tehtiin 42 minuuttia sitten, kello 22.30 UTC
Tuuli 4 kn pohjoisesta/koillisesta
Lämpötila 14°C
Kosteus 100%
Ilmanpaine 1019 hPa
Näkyvyys 10 km tai enemmän
ei pilviä alle 1500 m:ssä eikä cumulonimbus-pilviä

METAR: LEPA 122230Z 03004KT CAVOK 14/14 Q1019 NOSIG

Aika: 00:12 (23:12 UTC)

Sääennuste

Tämä raportti tehtiin 6 tuntia ja 12 minuuttia sitten, kello 17.00 UTC
Ennuste voimassa 12. päivästä klo 18 UTC - 13. päivään klo 18 UTC
Tuuli 10 kn etelästä/kaakosta
Näkyvyys 10 km tai enemmän
Hajanaisia pilviä 1500 ft:n korkeudessa
Tulossa
12. päivästä klo 18 UTC - 12. päivään klo 19 UTC
Tuuli 6 kn koillisesta

TAF: LEPA 121700Z 1218/1318 15010KT 9999 SCT015 TX23/1312Z TN12/1306Z BECMG 1218/1219 04006KT

Säähavainnot ja -ennusteet yli 4000 lentoasemalta (METAR- ja TAF-raportit).

Käytössä olevat sääasemat on merkitty karttaan keltaisilla ja punaisilla pisteillä.

Aseta hiiri pisteen päälle nähdäksesi sääaseman nimen.

Klikkaa sitten nähdäksesi säähavainnot ja -ennusteet.

Kartan vaihtaminen: klikkaa mustalla rastilla varustettuja vihreitä pisteitä, niin voit zoomata sisään; viivalla varustettua vihreää pistettä, niin voit zoomata ulos tai vihreitä nuolia, niin pääset viereisille kartoille.


METAR-TAF: